Blue Star Naxos — SZUI — position and weather

sailwx.info

Track history (hours):
 
Tides and Currents Weather Stations Pressure Air Temp Water Temp Dewpoint Dewpoint Depression Visibility Wind Speed Wind Dir Waves Ship Positions

Blue Star Naxos

Last reported at 2017-Mar-27 21:33 UTC. Time now 2017-Mar-27 22:10 UTC.
Position N 37°57' E 023°38'.

Length 124 m; draft 5 m.

Type: Passenger vessel. MMSI: 239923000.

Date/timePositionNaut miles runAvg speedWind from/ knotsBaromVisibWave heightAir tempDewpointWater temp
2017-Mar-27 21:33N 37°57' E 023°38'0 0.0
2017-Mar-27 20:33N 37°57' E 023°38'0 0.0
2017-Mar-27 19:33N 37°57' E 023°38'0 0.0
2017-Mar-27 18:34N 37°57' E 023°38'0 0.0
2017-Mar-27 17:34N 37°57' E 023°38'5 4.7
2017-Mar-27 16:34N 37°52' E 023°39'7116.5
2017-Mar-27 12:16N 37°29' E 025°04'810.9
2017-Mar-27 11:33N 37°30' E 025°14'5 5.0
2017-Mar-27 10:34N 37°28' E 025°19'6 5.9
2017-Mar-27 09:33N 37°30' E 025°13'6917.1
2017-Mar-27 05:33N 37°38' E 023°47'1919.6
2017-Mar-27 04:34N 37°56' E 023°38'1 0.5
2017-Mar-27 03:34N 37°57' E 023°38'0 0.0
2017-Mar-27 02:34N 37°57' E 023°38'0 0.0
2017-Mar-27 01:33N 37°57' E 023°38'0 0.0
2017-Mar-27 00:34N 37°57' E 023°38'0 0.0
2017-Mar-26 23:34N 37°57' E 023°38'0 0.0
2017-Mar-26 22:34N 37°57' E 023°38'0 0.0
2017-Mar-26 21:34N 37°57' E 023°38'0 0.0
2017-Mar-26 20:34N 37°57' E 023°38'0 0.0
2017-Mar-26 19:34N 37°57' E 023°38'0 0.0
2017-Mar-26 18:34N 37°57' E 023°38'0 0.0
2017-Mar-26 17:34N 37°57' E 023°38'1 1.0
2017-Mar-26 16:34N 37°56' E 023°37'2120.8
2017-Mar-26 15:33N 37°39' E 023°52'5617.7
2017-Mar-26 12:22N 37°29' E 025°02'911.4
2017-Mar-26 11:33N 37°30' E 025°14'5 5.2
2017-Mar-26 10:33N 37°28' E 025°19'4 4.4
2017-Mar-26 09:34N 37°30' E 025°14'6917.4
2017-Mar-26 05:34N 37°38' E 023°48'1919.5
2017-Mar-26 04:33N 37°56' E 023°38'1 0.7
2017-Mar-26 03:33N 37°57' E 023°38'0 0.0
2017-Mar-26 02:33N 37°57' E 023°38'0 0.0
2017-Mar-26 01:33N 37°57' E 023°38'0 0.0
2017-Mar-26 00:33N 37°57' E 023°38'0 0.0
2017-Mar-25 23:33N 37°57' E 023°38'0 0.0
2017-Mar-25 22:33N 37°57' E 023°38'0 0.0
2017-Mar-25 21:33N 37°57' E 023°38'0 0.0
2017-Mar-25 20:33N 37°57' E 023°38'0 0.0
2017-Mar-25 19:33N 37°57' E 023°38'0 0.0
2017-Mar-25 18:33N 37°57' E 023°38'3 3.2
2017-Mar-25 17:34N 37°54' E 023°38'2121.3
2017-Mar-25 16:33N 37°38' E 023°56'5316.7
2017-Mar-25 13:22N 37°29' E 025°03'1012.0
2017-Mar-25 12:33N 37°30' E 025°15'4 4.0
2017-Mar-25 11:33N 37°28' E 025°19'7 6.8
2017-Mar-25 10:34N 37°21' E 025°20'2019.3
2017-Mar-25 09:32N 37°07' E 025°38'16 1.4
2017-Mar-24 22:21N 36°59' E 025°20'7 9.2
2017-Mar-24 21:33N 37°06' E 025°22'19 9.7
2017-Mar-24 19:33N 37°11' E 024°59'6421.2
2017-Mar-24 16:33N 37°39' E 023°46'1919.0
2017-Mar-24 15:33N 37°56' E 023°38'1 0.5
2017-Mar-24 14:33N 37°57' E 023°38'0 0.0
2017-Mar-24 13:33N 37°57' E 023°38'9 9.4
2017-Mar-24 12:34N 37°48' E 023°42'6721.5
2017-Mar-24 09:27N 37°10' E 024°51'1712.2
2017-Mar-24 08:04N 37°09' E 025°13'816.4
2017-Mar-24 07:33N 37°06' E 025°22'1511.1
2017-Mar-24 06:15N 37°09' E 025°40'10 1.4
2017-Mar-23 23:11N 37°11' E 025°28'711.3
2017-Mar-23 22:34N 37°06' E 025°22'21 9.3
2017-Mar-23 20:21N 37°19' E 025°02'4615.4
2017-Mar-23 17:20N 37°33' E 024°06'1721.5
2017-Mar-23 16:34N 37°39' E 023°46'1919.0
2017-Mar-23 15:34N 37°56' E 023°38'0 0.4
2017-Mar-23 14:34N 37°57' E 023°38'0 0.0
2017-Mar-23 13:33N 37°57' E 023°38'10 9.7
2017-Mar-23 12:33N 37°47' E 023°42'6721.6
2017-Mar-23 09:28N 37°10' E 024°51'2512.9
2017-Mar-23 07:34N 37°07' E 025°22'1511.7
2017-Mar-23 06:16N 37°09' E 025°40'0 0.0
2017-Mar-22 22:34N 37°09' E 025°40'1514.7
2017-Mar-22 21:34N 37°06' E 025°22'19 9.7
2017-Mar-22 19:34N 37°11' E 024°59'4321.3
2017-Mar-22 17:31N 37°32' E 024°11'2421.4
2017-Mar-22 16:23N 37°41' E 023°42'16 5.0
2017-Mar-22 13:06N 37°57' E 023°38'1018.0
2017-Mar-22 12:33N 37°47' E 023°42'6721.6
2017-Mar-22 09:28N 37°10' E 024°52'2512.9
2017-Mar-22 07:33N 37°06' E 025°22'6 6.2
2017-Mar-22 06:33N 37°01' E 025°19'2 0.2
2017-Mar-21 23:21N 36°59' E 025°20'7 9.3
2017-Mar-21 22:33N 37°06' E 025°22'28 9.0
2017-Mar-21 19:24N 37°27' E 024°58'6020.6
2017-Mar-21 16:28N 37°40' E 023°43'10 2.7
2017-Mar-21 12:33N 37°50' E 023°40'7022.0
2017-Mar-21 09:22N 37°13' E 024°55'2212.4
2017-Mar-21 07:34N 37°06' E 025°22'1510.6
2017-Mar-21 06:07N 37°09' E 025°41'10 1.3
2017-Mar-20 22:10N 37°12' E 025°29'813.1
2017-Mar-20 21:34N 37°06' E 025°22'20 9.8
2017-Mar-20 19:33N 37°11' E 024°58'6721.3
2017-Mar-20 16:24N 37°40' E 023°43'1619.5
2017-Mar-20 15:33N 37°57' E 023°38'0 0.1
2017-Mar-20 13:05N 37°57' E 023°38'1018.0
2017-Mar-20 12:34N 37°48' E 023°42'6421.4
2017-Mar-20 09:33N 37°15' E 024°51'2613.0
2017-Mar-20 07:34N 37°06' E 025°22'6 6.0
2017-Mar-20 06:33N 37°01' E 025°19'1 0.2
2017-Mar-19 22:34N 36°60' E 025°20'1111.0
2017-Mar-19 21:33N 37°10' E 025°16'22 9.8
2017-Mar-19 19:18N 37°27' E 024°58'3620.4
2017-Mar-19 17:31N 37°31' E 024°12'2522.2
2017-Mar-19 16:24N 37°40' E 023°43'1720.0
2017-Mar-19 15:33N 37°56' E 023°38'0 0.2
2017-Mar-19 13:08N 37°57' E 023°38'1017.3
2017-Mar-19 12:33N 37°48' E 023°42'6521.5
2017-Mar-19 09:32N 37°14' E 024°52'2512.6
2017-Mar-19 07:33N 37°06' E 025°22'5 5.2
2017-Mar-19 06:34N 37°02' E 025°18'3 0.1
2017-Mar-17 22:30N 36°59' E 025°20'7 7.8
2017-Mar-17 21:33N 37°06' E 025°22'  
Track history (hours):
 
Tides and Currents Weather Stations Pressure Air Temp Water Temp Dewpoint Dewpoint Depression Visibility Wind Speed Wind Dir Waves Ship Positions

Blue Star Naxos

Last reported at 2017-Mar-27 21:33 UTC. Time now 2017-Mar-27 22:10 UTC.
Position N 37°57' E 023°38'.

Length 124 m; draft 5 m.

Type: Passenger vessel. MMSI: 239923000.

Date/timePositionNaut miles runAvg speedWind from/ knotsBaromVisibWave heightAir tempDewpointWater temp
2017-Mar-27 21:33N 37°57' E 023°38'0 0.0
2017-Mar-27 20:33N 37°57' E 023°38'0 0.0
2017-Mar-27 19:33N 37°57' E 023°38'0 0.0
2017-Mar-27 18:34N 37°57' E 023°38'0 0.0
2017-Mar-27 17:34N 37°57' E 023°38'5 4.7
2017-Mar-27 16:34N 37°52' E 023°39'7116.5
2017-Mar-27 12:16N 37°29' E 025°04'810.9
2017-Mar-27 11:33N 37°30' E 025°14'5 5.0
2017-Mar-27 10:34N 37°28' E 025°19'6 5.9
2017-Mar-27 09:33N 37°30' E 025°13'6917.1
2017-Mar-27 05:33N 37°38' E 023°47'1919.6
2017-Mar-27 04:34N 37°56' E 023°38'1 0.5
2017-Mar-27 03:34N 37°57' E 023°38'0 0.0
2017-Mar-27 02:34N 37°57' E 023°38'0 0.0
2017-Mar-27 01:33N 37°57' E 023°38'0 0.0
2017-Mar-27 00:34N 37°57' E 023°38'0 0.0
2017-Mar-26 23:34N 37°57' E 023°38'0 0.0
2017-Mar-26 22:34N 37°57' E 023°38'0 0.0
2017-Mar-26 21:34N 37°57' E 023°38'0 0.0
2017-Mar-26 20:34N 37°57' E 023°38'0 0.0
2017-Mar-26 19:34N 37°57' E 023°38'0 0.0
2017-Mar-26 18:34N 37°57' E 023°38'0 0.0
2017-Mar-26 17:34N 37°57' E 023°38'1 1.0
2017-Mar-26 16:34N 37°56' E 023°37'2120.8
2017-Mar-26 15:33N 37°39' E 023°52'5617.7
2017-Mar-26 12:22N 37°29' E 025°02'911.4
2017-Mar-26 11:33N 37°30' E 025°14'5 5.2
2017-Mar-26 10:33N 37°28' E 025°19'4 4.4
2017-Mar-26 09:34N 37°30' E 025°14'6917.4
2017-Mar-26 05:34N 37°38' E 023°48'1919.5
2017-Mar-26 04:33N 37°56' E 023°38'1 0.7
2017-Mar-26 03:33N 37°57' E 023°38'0 0.0
2017-Mar-26 02:33N 37°57' E 023°38'0 0.0
2017-Mar-26 01:33N 37°57' E 023°38'0 0.0
2017-Mar-26 00:33N 37°57' E 023°38'0 0.0
2017-Mar-25 23:33N 37°57' E 023°38'0 0.0
2017-Mar-25 22:33N 37°57' E 023°38'0 0.0
2017-Mar-25 21:33N 37°57' E 023°38'0 0.0
2017-Mar-25 20:33N 37°57' E 023°38'0 0.0
2017-Mar-25 19:33N 37°57' E 023°38'0 0.0
2017-Mar-25 18:33N 37°57' E 023°38'3 3.2
2017-Mar-25 17:34N 37°54' E 023°38'2121.3
2017-Mar-25 16:33N 37°38' E 023°56'5316.7
2017-Mar-25 13:22N 37°29' E 025°03'1012.0
2017-Mar-25 12:33N 37°30' E 025°15'4 4.0
2017-Mar-25 11:33N 37°28' E 025°19'7 6.8
2017-Mar-25 10:34N 37°21' E 025°20'2019.3
2017-Mar-25 09:32N 37°07' E 025°38'16 1.4
2017-Mar-24 22:21N 36°59' E 025°20'7 9.2
2017-Mar-24 21:33N 37°06' E 025°22'19 9.7
2017-Mar-24 19:33N 37°11' E 024°59'6421.2
2017-Mar-24 16:33N 37°39' E 023°46'1919.0
2017-Mar-24 15:33N 37°56' E 023°38'1 0.5
2017-Mar-24 14:33N 37°57' E 023°38'0 0.0
2017-Mar-24 13:33N 37°57' E 023°38'9 9.4
2017-Mar-24 12:34N 37°48' E 023°42'6721.5
2017-Mar-24 09:27N 37°10' E 024°51'1712.2
2017-Mar-24 08:04N 37°09' E 025°13'816.4
2017-Mar-24 07:33N 37°06' E 025°22'1511.1
2017-Mar-24 06:15N 37°09' E 025°40'10 1.4
2017-Mar-23 23:11N 37°11' E 025°28'711.3
2017-Mar-23 22:34N 37°06' E 025°22'21 9.3
2017-Mar-23 20:21N 37°19' E 025°02'4615.4
2017-Mar-23 17:20N 37°33' E 024°06'1721.5
2017-Mar-23 16:34N 37°39' E 023°46'1919.0
2017-Mar-23 15:34N 37°56' E 023°38'0 0.4
2017-Mar-23 14:34N 37°57' E 023°38'0 0.0
2017-Mar-23 13:33N 37°57' E 023°38'10 9.7
2017-Mar-23 12:33N 37°47' E 023°42'6721.6
2017-Mar-23 09:28N 37°10' E 024°51'2512.9
2017-Mar-23 07:34N 37°07' E 025°22'1511.7
2017-Mar-23 06:16N 37°09' E 025°40'0 0.0
2017-Mar-22 22:34N 37°09' E 025°40'1514.7
2017-Mar-22 21:34N 37°06' E 025°22'19 9.7
2017-Mar-22 19:34N 37°11' E 024°59'4321.3
2017-Mar-22 17:31N 37°32' E 024°11'2421.4
2017-Mar-22 16:23N 37°41' E 023°42'16 5.0
2017-Mar-22 13:06N 37°57' E 023°38'1018.0
2017-Mar-22 12:33N 37°47' E 023°42'6721.6
2017-Mar-22 09:28N 37°10' E 024°52'2512.9
2017-Mar-22 07:33N 37°06' E 025°22'6 6.2
2017-Mar-22 06:33N 37°01' E 025°19'2 0.2
2017-Mar-21 23:21N 36°59' E 025°20'7 9.3
2017-Mar-21 22:33N 37°06' E 025°22'28 9.0
2017-Mar-21 19:24N 37°27' E 024°58'6020.6
2017-Mar-21 16:28N 37°40' E 023°43'10 2.7
2017-Mar-21 12:33N 37°50' E 023°40'7022.0
2017-Mar-21 09:22N 37°13' E 024°55'2212.4
2017-Mar-21 07:34N 37°06' E 025°22'1510.6
2017-Mar-21 06:07N 37°09' E 025°41'10 1.3
2017-Mar-20 22:10N 37°12' E 025°29'813.1
2017-Mar-20 21:34N 37°06' E 025°22'20 9.8
2017-Mar-20 19:33N 37°11' E 024°58'6721.3
2017-Mar-20 16:24N 37°40' E 023°43'1619.5
2017-Mar-20 15:33N 37°57' E 023°38'0 0.1
2017-Mar-20 13:05N 37°57' E 023°38'1018.0
2017-Mar-20 12:34N 37°48' E 023°42'6421.4
2017-Mar-20 09:33N 37°15' E 024°51'2613.0
2017-Mar-20 07:34N 37°06' E 025°22'6 6.0
2017-Mar-20 06:33N 37°01' E 025°19'1 0.2
2017-Mar-19 22:34N 36°60' E 025°20'1111.0
2017-Mar-19 21:33N 37°10' E 025°16'22 9.8
2017-Mar-19 19:18N 37°27' E 024°58'3620.4
2017-Mar-19 17:31N 37°31' E 024°12'2522.2
2017-Mar-19 16:24N 37°40' E 023°43'1720.0
2017-Mar-19 15:33N 37°56' E 023°38'0 0.2
2017-Mar-19 13:08N 37°57' E 023°38'1017.3
2017-Mar-19 12:33N 37°48' E 023°42'6521.5
2017-Mar-19 09:32N 37°14' E 024°52'2512.6
2017-Mar-19 07:33N 37°06' E 025°22'5 5.2
2017-Mar-19 06:34N 37°02' E 025°18'3 0.1
2017-Mar-17 22:30N 36°59' E 025°20'7 7.8
2017-Mar-17 21:33N 37°06' E 025°22'  

Dump ship's entire track history